Time;durP1;ratioP1;P1;durP2;ratioP2;P2;SDS_P1;SDS_P2;PMS_P1;PMS_P2;Temp;Humidity;BMP_temperature;BMP_pressure;BME280_temperature;BME280_humidity;BME280_pressure;Samples;Min_cycle;Max_cycle;Signal;HPM_P1;HPM_P2
2022/04/11 00:01:32;;;;;;;4.95;2.72;;;6.20;97.20;;;;;;5048346;28;20124;-40
2022/04/11 00:03:58;;;;;;;3.80;2.70;;;6.20;97.20;;;;;;5047279;28;20033;-42
2022/04/11 00:06:27;;;;;;;4.53;2.70;;;6.20;97.30;;;;;;5048100;28;20029;-40
2022/04/11 00:08:52;;;;;;;4.05;2.63;;;6.20;97.40;;;;;;5047406;28;20465;-41
2022/04/11 00:11:18;;;;;;;3.85;2.65;;;6.10;97.50;;;;;;5048202;28;20044;-39
2022/04/11 00:13:43;;;;;;;4.57;2.70;;;6.10;97.60;;;;;;5047337;28;20024;-42
2022/04/11 00:16:09;;;;;;;3.55;2.58;;;6.10;97.90;;;;;;5048220;28;20021;-40
2022/04/11 00:18:35;;;;;;;4.13;2.47;;;6.10;97.60;;;;;;5047642;28;20379;-41
2022/04/11 00:21:01;;;;;;;5.15;2.55;;;6.10;97.60;;;;;;5047712;28;20591;-42
2022/04/11 00:23:27;;;;;;;3.72;2.47;;;6.20;97.60;;;;;;5047775;28;20111;-39
2022/04/11 00:25:52;;;;;;;3.17;2.08;;;6.20;97.60;;;;;;5046556;28;20056;-41
2022/04/11 00:28:18;;;;;;;4.50;2.70;;;6.20;97.50;;;;;;5047559;28;20025;-40
2022/04/11 00:30:43;;;;;;;2.83;2.53;;;6.20;97.50;;;;;;5047064;28;20033;-42
2022/04/11 00:33:09;;;;;;;6.18;2.72;;;6.30;97.50;;;;;;5047378;28;20028;-46
2022/04/11 00:35:34;;;;;;;4.00;2.70;;;6.30;97.40;;;;;;5047639;28;20060;-43
2022/04/11 00:38:00;;;;;;;5.50;2.55;;;6.30;97.40;;;;;;5047113;28;20043;-40
2022/04/11 00:40:25;;;;;;;3.80;2.60;;;6.30;97.40;;;;;;5046517;28;20032;-43
2022/04/11 00:42:51;;;;;;;3.30;2.10;;;6.30;97.50;;;;;;5047019;28;20074;-43
2022/04/11 00:45:17;;;;;;;6.25;2.85;;;6.30;97.50;;;;;;5047648;28;20025;-43
2022/04/11 00:47:43;;;;;;;2.95;2.30;;;6.30;97.50;;;;;;5046676;28;20040;-42
2022/04/11 00:50:10;;;;;;;3.72;2.75;;;6.30;97.50;;;;;;5046774;28;20389;-39
2022/04/11 00:52:42;;;;;;;5.38;2.60;;;6.20;97.50;;;;;;5048110;28;20066;-42
2022/04/11 00:55:08;;;;;;;4.05;2.55;;;6.30;97.50;;;;;;5046840;28;20025;-41
2022/04/11 00:57:34;;;;;;;3.55;2.63;;;6.20;97.60;;;;;;5046557;28;20033;-40
2022/04/11 00:59:59;;;;;;;4.30;2.45;;;6.20;97.50;;;;;;5046250;28;20025;-43
2022/04/11 01:02:25;;;;;;;4.03;2.95;;;6.30;97.80;;;;;;5047052;28;20029;-41
2022/04/11 01:04:51;;;;;;;3.53;3.00;;;6.30;97.60;;;;;;5046625;28;20548;-42
2022/04/11 01:07:16;;;;;;;5.40;2.72;;;6.30;97.60;;;;;;5047080;28;20021;-42
2022/04/11 01:09:42;;;;;;;6.95;2.92;;;6.30;97.50;;;;;;5046952;28;20028;-42
2022/04/11 01:12:08;;;;;;;4.45;2.50;;;6.30;97.50;;;;;;5047327;28;20042;-41
2022/04/11 01:14:34;;;;;;;3.47;2.28;;;6.30;97.50;;;;;;5046539;28;20075;-43
2022/04/11 01:16:59;;;;;;;4.95;2.67;;;6.30;97.50;;;;;;5046766;28;20067;-41
2022/04/11 01:19:26;;;;;;;5.28;2.83;;;6.30;97.60;;;;;;5047240;28;20028;-41
2022/04/11 01:21:51;;;;;;;6.13;2.90;;;6.30;97.60;;;;;;5045827;28;20013;-41
2022/04/11 01:24:21;;;;;;;4.95;2.72;;;6.30;97.60;;;;;;5047279;28;20051;-43
2022/04/11 01:26:47;;;;;;;3.90;2.90;;;6.30;97.60;;;;;;5046424;28;20021;-41
2022/04/11 01:29:14;;;;;;;6.35;3.13;;;6.30;97.60;;;;;;5046571;28;20623;-37
2022/04/11 01:31:39;;;;;;;4.93;2.72;;;6.30;97.60;;;;;;5046707;28;20021;-38
2022/04/11 01:34:05;;;;;;;2.83;2.50;;;6.30;97.60;;;;;;5046553;28;20028;-41
2022/04/11 01:36:30;;;;;;;4.50;2.90;;;6.30;97.70;;;;;;5046120;28;20529;-41
2022/04/11 01:38:56;;;;;;;4.57;2.75;;;6.30;97.70;;;;;;5046100;28;20476;-41
2022/04/11 01:41:21;;;;;;;3.72;2.72;;;6.30;97.70;;;;;;5046586;28;20029;-42
2022/04/11 01:43:47;;;;;;;4.97;3.30;;;6.20;97.70;;;;;;5045776;28;20032;-40
2022/04/11 01:46:13;;;;;;;4.80;3.10;;;6.20;97.80;;;;;;5046623;28;20033;-42
2022/04/11 01:48:39;;;;;;;4.45;3.00;;;6.20;97.80;;;;;;5046497;28;20037;-40
2022/04/11 01:51:04;;;;;;;4.47;3.25;;;6.20;97.80;;;;;;5045033;28;20029;-43
2022/04/11 01:53:30;;;;;;;5.00;3.20;;;6.20;97.90;;;;;;5046661;28;20429;-43
2022/04/11 01:55:56;;;;;;;5.50;3.30;;;6.20;97.90;;;;;;5045491;28;20033;-43
2022/04/11 01:58:21;;;;;;;6.80;3.58;;;6.10;97.90;;;;;;5045621;28;20505;-40
2022/04/11 02:00:47;;;;;;;5.25;3.30;;;6.10;98.00;;;;;;5046235;28;20115;-42
2022/04/11 02:03:13;;;;;;;4.40;3.50;;;6.10;98.00;;;;;;5045135;28;20035;-43
2022/04/11 02:05:42;;;;;;;4.00;2.95;;;6.10;98.10;;;;;;5046279;28;20439;-41
2022/04/11 02:08:10;;;;;;;4.07;3.03;;;6.10;98.10;;;;;;5046700;28;20032;-42
2022/04/11 02:10:38;;;;;;;4.18;3.58;;;6.10;98.20;;;;;;5045320;28;20083;-42
2022/04/11 02:13:05;;;;;;;6.10;3.33;;;6.00;98.20;;;;;;5045239;28;20143;-44
2022/04/11 02:15:31;;;;;;;4.68;3.25;;;6.10;98.20;;;;;;5046196;28;20031;-42
2022/04/11 02:17:56;;;;;;;4.30;3.50;;;6.00;98.20;;;;;;5044806;28;20036;-41
2022/04/11 02:20:23;;;;;;;4.22;3.55;;;6.00;98.20;;;;;;5045795;28;20496;-41
2022/04/11 02:22:59;;;;;;;5.70;3.80;;;6.00;98.20;;;;;;5045315;28;20614;-41
2022/04/11 02:25:27;;;;;;;4.15;3.35;;;6.00;98.30;;;;;;5045523;28;20033;-42
2022/04/11 02:27:59;;;;;;;4.32;3.30;;;6.00;98.30;;;;;;5045003;28;20033;-42
2022/04/11 02:30:26;;;;;;;5.53;3.38;;;6.00;98.30;;;;;;5046066;28;20104;-41
2022/04/11 02:32:55;;;;;;;4.85;3.70;;;6.00;98.30;;;;;;5044634;28;20021;-42
2022/04/11 02:35:20;;;;;;;5.53;4.32;;;5.90;98.30;;;;;;5045566;28;20107;-42
2022/04/11 02:37:46;;;;;;;6.15;3.92;;;5.90;98.40;;;;;;5045267;28;20472;-41
2022/04/11 02:40:13;;;;;;;4.47;3.85;;;5.90;98.40;;;;;;5045533;28;20032;-40
2022/04/11 02:42:41;;;;;;;5.15;4.20;;;5.90;98.40;;;;;;5045896;28;20039;-40
2022/04/11 02:45:10;;;;;;;4.90;3.60;;;5.80;98.40;;;;;;5045819;28;20025;-42
2022/04/11 02:47:36;;;;;;;4.85;3.95;;;5.80;98.50;;;;;;5045332;28;20033;-41
2022/04/11 02:50:02;;;;;;;4.75;4.00;;;5.80;98.50;;;;;;5045005;28;20036;-41
2022/04/11 02:52:29;;;;;;;5.57;3.95;;;5.80;98.50;;;;;;5045335;28;20040;-42
2022/04/11 02:54:55;;;;;;;5.25;3.88;;;5.80;98.60;;;;;;5044771;28;20029;-39
2022/04/11 02:57:24;;;;;;;5.53;3.55;;;5.80;98.60;;;;;;5045768;28;20048;-39
2022/04/11 02:59:50;;;;;;;4.53;3.13;;;5.70;98.60;;;;;;5044387;28;20123;-44
2022/04/11 03:02:16;;;;;;;7.47;4.00;;;5.70;98.60;;;;;;5045383;28;20048;-42
2022/04/11 03:04:41;;;;;;;5.40;3.92;;;5.70;98.70;;;;;;5045015;28;20465;-42
2022/04/11 03:07:07;;;;;;;6.57;4.13;;;5.70;98.70;;;;;;5044961;28;20511;-42
2022/04/11 03:09:33;;;;;;;4.22;3.83;;;5.60;98.70;;;;;;5045060;28;20496;-41
2022/04/11 03:11:58;;;;;;;5.53;3.80;;;5.70;98.80;;;;;;5045368;28;20111;-42
2022/04/11 03:14:24;;;;;;;6.50;4.18;;;5.60;98.80;;;;;;5045051;28;20346;-40
2022/04/11 03:16:50;;;;;;;8.00;4.20;;;5.60;98.90;;;;;;5044393;28;20041;-43
2022/04/11 03:19:15;;;;;;;6.78;4.25;;;5.60;98.90;;;;;;5045652;28;20450;-42
2022/04/11 03:21:41;;;;;;;5.35;4.13;;;5.60;98.90;;;;;;5045447;28;20048;-42
2022/04/11 03:24:07;;;;;;;6.80;4.25;;;5.60;98.90;;;;;;5049607;28;20076;-42
2022/04/11 03:26:32;;;;;;;7.00;4.07;;;5.60;99.00;;;;;;5049338;28;20044;-40
2022/04/11 03:28:58;;;;;;;5.47;3.92;;;5.50;99.00;;;;;;5047989;28;20029;-41
2022/04/11 03:31:23;;;;;;;5.63;3.67;;;5.50;99.00;;;;;;5049288;28;20021;-41
2022/04/11 03:33:49;;;;;;;4.88;3.90;;;5.50;99.10;;;;;;5048227;28;20049;-40
2022/04/11 03:36:14;;;;;;;7.15;4.47;;;5.50;99.00;;;;;;5048208;28;20448;-41
2022/04/11 03:38:40;;;;;;;4.90;3.90;;;5.50;99.10;;;;;;5049382;28;20048;-40
2022/04/11 03:41:05;;;;;;;5.70;4.10;;;5.50;99.10;;;;;;5047798;28;20055;-41
2022/04/11 03:43:31;;;;;;;6.20;4.50;;;5.50;99.10;;;;;;5048230;28;20040;-41
2022/04/11 03:45:56;;;;;;;4.85;3.85;;;5.50;99.10;;;;;;5048377;28;20033;-43
2022/04/11 03:48:21;;;;;;;7.57;4.38;;;5.50;99.10;;;;;;5048790;28;20041;-42
2022/04/11 03:50:47;;;;;;;5.03;4.53;;;5.40;99.20;;;;;;5047564;28;20099;-39
2022/04/11 03:53:13;;;;;;;6.78;4.47;;;5.40;99.20;;;;;;5048923;28;20032;-42
2022/04/11 03:55:38;;;;;;;4.97;4.47;;;5.40;99.30;;;;;;5048559;28;20032;-39
2022/04/11 03:58:04;;;;;;;5.70;4.43;;;5.40;99.30;;;;;;5047021;28;20053;-41
2022/04/11 04:00:30;;;;;;;7.03;4.68;;;5.40;99.30;;;;;;5048651;28;20047;-42
2022/04/11 04:03:15;;;;;;;7.40;4.50;;;5.30;99.30;;;;;;5048095;28;20108;-41
2022/04/11 04:05:43;;;;;;;6.47;4.60;;;5.30;99.40;;;;;;5046661;28;20048;-41
2022/04/11 04:08:10;;;;;;;6.22;4.68;;;5.30;99.40;;;;;;5048255;28;20025;-39
2022/04/11 04:10:36;;;;;;;6.90;4.68;;;5.30;99.40;;;;;;5048234;28;20476;-41
2022/04/11 04:13:02;;;;;;;7.03;4.40;;;5.40;99.40;;;;;;5047903;28;20096;-43
2022/04/11 04:15:28;;;;;;;6.10;4.43;;;5.40;99.40;;;;;;5048321;28;20017;-42
2022/04/11 04:17:54;;;;;;;4.80;4.30;;;5.40;99.40;;;;;;5047282;28;20033;-41
2022/04/11 04:20:20;;;;;;;5.40;3.92;;;5.40;99.40;;;;;;5048456;28;20104;-40
2022/04/11 04:22:46;;;;;;;5.78;3.85;;;5.40;99.40;;;;;;5047246;28;20125;-40
2022/04/11 04:25:11;;;;;;;5.53;4.13;;;5.40;99.40;;;;;;5047709;28;20082;-40
2022/04/11 04:27:37;;;;;;;7.57;4.70;;;5.40;99.40;;;;;;5048433;28;20028;-40
2022/04/11 04:30:03;;;;;;;5.30;4.53;;;5.40;99.40;;;;;;5046841;28;20153;-44
2022/04/11 04:32:29;;;;;;;9.57;6.03;;;5.50;99.40;;;;;;5046690;28;20029;-38
2022/04/11 04:34:55;;;;;;;6.20;4.57;;;5.50;99.40;;;;;;5047831;28;20040;-40
2022/04/11 04:37:20;;;;;;;6.22;4.88;;;5.50;99.40;;;;;;5047488;28;20024;-41
2022/04/11 04:39:46;;;;;;;5.13;4.53;;;5.50;99.40;;;;;;5046633;28;20139;-41
2022/04/11 04:42:11;;;;;;;8.15;5.25;;;5.50;99.40;;;;;;5047404;28;20369;-41
2022/04/11 04:44:40;;;;;;;5.10;4.30;;;5.50;99.40;;;;;;5047977;28;20024;-41
2022/04/11 04:47:06;;;;;;;5.80;4.60;;;5.50;99.40;;;;;;5047077;28;20084;-43
2022/04/11 04:49:32;;;;;;;7.55;4.90;;;5.50;99.40;;;;;;5047651;28;20136;-43
2022/04/11 04:51:58;;;;;;;5.28;4.55;;;5.50;99.40;;;;;;5046873;28;20175;-41
2022/04/11 04:54:24;;;;;;;5.43;4.45;;;5.50;99.40;;;;;;5047064;28;20013;-41
2022/04/11 04:56:49;;;;;;;8.68;5.20;;;5.50;99.50;;;;;;5047173;28;20041;-40
2022/04/11 04:59:15;;;;;;;5.93;5.03;;;5.50;99.50;;;;;;5046632;28;20049;-42
2022/04/11 05:01:41;;;;;;;5.88;5.15;;;5.50;99.60;;;;;;5046343;28;20404;-42
2022/04/11 05:04:06;;;;;;;6.70;5.10;;;5.40;99.60;;;;;;5047322;28;20117;-42
2022/04/11 05:06:33;;;;;;;7.85;5.70;;;5.40;99.70;;;;;;5046732;28;20293;-43
2022/04/11 05:08:59;;;;;;;7.47;5.15;;;5.40;99.70;;;;;;5046330;28;20023;-41
2022/04/11 05:11:25;;;;;;;7.53;5.40;;;5.40;99.70;;;;;;5047958;28;20028;-41
2022/04/11 05:13:50;;;;;;;7.13;5.25;;;5.40;99.70;;;;;;5046561;28;20025;-41
2022/04/11 05:16:18;;;;;;;7.97;5.47;;;5.50;99.70;;;;;;5046960;28;20056;-41
2022/04/11 05:18:44;;;;;;;6.60;5.50;;;5.50;99.70;;;;;;5046342;28;20199;-42
2022/04/11 05:21:10;;;;;;;6.65;5.22;;;5.60;99.70;;;;;;5046338;28;20158;-40
2022/04/11 05:23:35;;;;;;;6.95;5.55;;;5.60;99.60;;;;;;5047013;28;20086;-41
2022/04/11 05:26:02;;;;;;;6.80;4.78;;;5.70;99.60;;;;;;5046676;28;20025;-41
2022/04/11 05:28:30;;;;;;;8.50;5.50;;;5.70;99.60;;;;;;5046298;28;20092;-40
2022/04/11 05:30:55;;;;;;;6.25;5.25;;;5.70;99.50;;;;;;5046316;28;20108;-41
2022/04/11 05:33:21;;;;;;;9.07;5.82;;;5.70;99.50;;;;;;5047513;28;20533;-40
2022/04/11 05:35:47;;;;;;;8.15;6.82;;;5.80;99.60;;;;;;5045584;28;20079;-40
2022/04/11 05:38:14;;;;;;;8.23;6.07;;;5.80;99.50;;;;;;5046939;28;20598;-38
2022/04/11 05:40:39;;;;;;;6.78;5.50;;;5.80;99.50;;;;;;5046527;28;20055;-42
2022/04/11 05:43:07;;;;;;;7.63;5.50;;;5.80;99.50;;;;;;5043206;28;20041;-43
2022/04/11 05:45:32;;;;;;;5.85;4.90;;;5.80;99.50;;;;;;5046090;28;20036;-43
2022/04/11 05:47:58;;;;;;;5.70;5.10;;;5.90;99.50;;;;;;5045914;28;20045;-41
2022/04/11 05:50:23;;;;;;;6.13;4.63;;;5.90;99.50;;;;;;5044168;28;20579;-40
2022/04/11 05:52:49;;;;;;;6.32;5.47;;;5.90;99.50;;;;;;5045042;28;20056;-41
2022/04/11 05:55:14;;;;;;;5.72;4.75;;;5.90;99.40;;;;;;5044780;28;20354;-39
2022/04/11 05:57:40;;;;;;;6.45;5.20;;;6.00;99.50;;;;;;5044045;28;20106;-41
2022/04/11 06:00:07;;;;;;;8.43;5.90;;;6.00;99.40;;;;;;5045305;28;20025;-39
2022/04/11 06:02:35;;;;;;;6.40;4.88;;;6.10;99.50;;;;;;5045351;28;20024;-43
2022/04/11 06:05:01;;;;;;;6.00;5.45;;;6.00;99.40;;;;;;5044366;28;20024;-41
2022/04/11 06:07:28;;;;;;;7.20;5.25;;;6.00;99.50;;;;;;5045803;28;20032;-42
2022/04/11 06:09:55;;;;;;;7.40;5.50;;;6.00;99.80;;;;;;5044350;28;20028;-41
2022/04/11 06:12:22;;;;;;;6.38;5.55;;;6.00;99.50;;;;;;5045056;28;20021;-42
2022/04/11 06:14:47;;;;;;;5.80;4.97;;;6.00;99.60;;;;;;5044752;28;20071;-42
2022/04/11 06:17:13;;;;;;;7.50;6.45;;;5.90;99.60;;;;;;5044311;28;20729;-39
2022/04/11 06:19:38;;;;;;;5.95;5.07;;;5.90;99.60;;;;;;5045618;28;20044;-41
2022/04/11 06:22:04;;;;;;;5.88;5.28;;;5.90;99.70;;;;;;5045003;28;20021;-42
2022/04/11 06:24:29;;;;;;;6.05;5.07;;;5.90;99.70;;;;;;5045509;28;20048;-41
2022/04/11 06:26:55;;;;;;;8.68;5.55;;;5.90;99.80;;;;;;5043680;28;20480;-41
2022/04/11 06:29:20;;;;;;;7.70;6.05;;;5.90;99.80;;;;;;5045253;28;20040;-41
2022/04/11 06:31:45;;;;;;;6.90;5.65;;;5.80;99.90;;;;;;5044262;28;20040;-41
2022/04/11 06:34:11;;;;;;;7.53;5.60;;;5.80;99.90;;;;;;5045496;28;20039;-42
2022/04/11 06:36:36;;;;;;;8.73;5.80;;;5.90;99.90;;;;;;5045272;28;20148;-38
2022/04/11 06:39:02;;;;;;;8.38;5.82;;;5.90;99.90;;;;;;5044432;28;20067;-42
2022/04/11 06:41:28;;;;;;;7.22;6.22;;;5.90;99.90;;;;;;5045190;28;20025;-42
2022/04/11 06:43:53;;;;;;;10.30;6.88;;;5.90;99.90;;;;;;5043963;28;20025;-41
2022/04/11 06:46:19;;;;;;;12.10;7.40;;;5.90;99.90;;;;;;5044769;28;20116;-42
2022/04/11 06:48:44;;;;;;;11.20;7.35;;;6.00;99.90;;;;;;5045227;28;20078;-39
2022/04/11 06:51:10;;;;;;;8.38;6.78;;;6.00;99.90;;;;;;5045156;28;20477;-38
2022/04/11 06:53:35;;;;;;;7.47;6.20;;;6.10;99.90;;;;;;5044609;28;20053;-43
2022/04/11 06:56:00;;;;;;;9.75;6.47;;;6.10;99.90;;;;;;5044277;28;20109;-39
2022/04/11 06:58:26;;;;;;;7.35;6.47;;;6.10;99.90;;;;;;5044797;28;20397;-40
2022/04/11 07:00:51;;;;;;;7.88;5.88;;;6.20;99.90;;;;;;5044226;28;20028;-42
2022/04/11 07:03:17;;;;;;;8.00;6.47;;;6.30;99.90;;;;;;5045161;28;20033;-43
2022/04/11 07:05:42;;;;;;;8.52;6.05;;;6.30;99.90;;;;;;5044950;28;20531;-42
2022/04/11 07:08:08;;;;;;;5.90;5.30;;;6.40;99.90;;;;;;5045343;28;20579;-40
2022/04/11 07:10:37;;;;;;;7.50;6.25;;;6.50;99.90;;;;;;5045650;28;20027;-42
2022/04/11 07:13:03;;;;;;;8.27;6.13;;;6.50;99.90;;;;;;5044365;28;20028;-43
2022/04/11 07:15:28;;;;;;;6.68;5.72;;;6.60;99.90;;;;;;5045021;28;20566;-39
2022/04/11 07:17:54;;;;;;;6.43;5.82;;;6.70;99.90;;;;;;5044634;28;20124;-41
2022/04/11 07:20:20;;;;;;;7.72;5.70;;;6.70;99.90;;;;;;5044815;28;20037;-39
2022/04/11 07:22:45;;;;;;;10.52;6.50;;;6.80;99.90;;;;;;5045085;28;20102;-39
2022/04/11 07:25:11;;;;;;;7.47;6.07;;;6.90;99.90;;;;;;5045243;28;20117;-40
2022/04/11 07:27:36;;;;;;;7.35;5.57;;;6.90;99.90;;;;;;5044911;28;20108;-41
2022/04/11 07:30:03;;;;;;;6.15;5.50;;;7.00;99.90;;;;;;5044554;28;20032;-42
2022/04/11 07:32:29;;;;;;;7.32;6.32;;;7.00;99.90;;;;;;5044123;28;20689;-41
2022/04/11 07:34:58;;;;;;;7.55;6.30;;;7.00;99.90;;;;;;5043960;28;20033;-42
2022/04/11 07:37:25;;;;;;;8.20;6.65;;;7.10;99.90;;;;;;5045050;28;20040;-41
2022/04/11 07:39:51;;;;;;;8.52;6.97;;;7.10;99.90;;;;;;5044603;28;20071;-41
2022/04/11 07:42:17;;;;;;;8.25;6.50;;;7.20;99.90;;;;;;5045089;28;20036;-42
2022/04/11 07:44:43;;;;;;;10.15;6.68;;;7.30;99.90;;;;;;5044329;28;20031;-41
2022/04/11 07:47:09;;;;;;;6.50;5.30;;;7.30;99.90;;;;;;5045490;28;20029;-41
2022/04/11 07:49:34;;;;;;;7.13;5.82;;;7.40;99.90;;;;;;5044773;28;20032;-41
2022/04/11 07:52:00;;;;;;;7.63;5.30;;;7.40;99.90;;;;;;5044390;28;20063;-42
2022/04/11 07:54:25;;;;;;;6.88;5.88;;;7.50;99.90;;;;;;5044856;28;20075;-41
2022/04/11 07:56:51;;;;;;;7.78;6.07;;;7.60;99.90;;;;;;5044133;28;20534;-40
2022/04/11 07:59:16;;;;;;;8.18;5.80;;;7.60;99.90;;;;;;5044756;28;20048;-39
2022/04/11 08:01:41;;;;;;;8.75;6.78;;;7.70;99.90;;;;;;5045202;28;20036;-41
2022/04/11 08:04:07;;;;;;;6.88;5.72;;;7.80;99.90;;;;;;5044022;28;20063;-42
2022/04/11 08:06:32;;;;;;;6.72;6.03;;;7.90;99.90;;;;;;5044909;28;20041;-42
2022/04/11 08:08:58;;;;;;;6.28;5.15;;;7.90;99.90;;;;;;5046418;28;20017;-41
2022/04/11 08:11:25;;;;;;;8.07;5.75;;;8.00;99.90;;;;;;5048552;28;20408;-41
2022/04/11 08:13:51;;;;;;;6.13;5.35;;;8.10;99.90;;;;;;5046909;28;20021;-43
2022/04/11 08:16:17;;;;;;;6.43;5.55;;;8.10;99.90;;;;;;5047769;28;20017;-41
2022/04/11 08:18:42;;;;;;;5.57;4.97;;;8.20;99.90;;;;;;5045852;28;20127;-41
2022/04/11 08:21:08;;;;;;;7.03;5.97;;;8.30;99.90;;;;;;5048379;28;20017;-41
2022/04/11 08:23:34;;;;;;;6.20;5.13;;;8.30;99.90;;;;;;5048329;28;20104;-43
2022/04/11 08:25:59;;;;;;;8.05;5.68;;;8.40;99.90;;;;;;5046874;28;20017;-43
2022/04/11 08:28:25;;;;;;;6.38;5.50;;;8.50;99.90;;;;;;5048343;28;20043;-40
2022/04/11 08:30:50;;;;;;;9.25;5.80;;;8.50;99.90;;;;;;5047190;28;20407;-42
2022/04/11 08:33:16;;;;;;;9.07;6.18;;;8.60;99.90;;;;;;5048039;28;20380;-42
2022/04/11 08:35:42;;;;;;;8.13;5.95;;;8.70;99.80;;;;;;5047516;28;20068;-41
2022/04/11 08:38:07;;;;;;;5.70;5.10;;;8.80;99.80;;;;;;5047312;28;20041;-42
2022/04/11 08:40:33;;;;;;;7.03;5.38;;;8.80;99.80;;;;;;5048006;28;20052;-45
2022/04/11 08:42:59;;;;;;;8.52;5.50;;;8.90;99.70;;;;;;5047408;28;20538;-41
2022/04/11 08:45:25;;;;;;;8.13;6.22;;;9.00;99.70;;;;;;5046741;28;20017;-44
2022/04/11 08:47:56;;;;;;;7.03;5.70;;;9.10;99.60;;;;;;5047487;28;20025;-41
2022/04/11 08:50:23;;;;;;;8.35;5.80;;;9.10;99.60;;;;;;5047857;28;20028;-40
2022/04/11 08:52:50;;;;;;;7.25;5.47;;;9.10;99.60;;;;;;5046397;28;20552;-41
2022/04/11 08:55:16;;;;;;;8.02;6.10;;;9.20;99.50;;;;;;5047526;28;20468;-42
2022/04/11 08:57:41;;;;;;;5.80;5.30;;;9.20;99.50;;;;;;5046831;28;20064;-42
2022/04/11 09:00:12;;;;;;;6.72;5.78;;;9.30;99.50;;;;;;5047150;28;20029;-44
2022/04/11 09:02:39;;;;;;;6.82;4.57;;;9.40;99.50;;;;;;5047188;28;20033;-43
2022/04/11 09:05:05;;;;;;;7.75;5.28;;;9.50;99.50;;;;;;5046420;28;20029;-42
2022/04/11 09:07:51;;;;;;;6.47;4.95;;;9.50;99.40;;;;;;5046936;28;20040;-43
2022/04/11 09:10:24;;;;;;;5.72;4.60;;;9.60;99.40;;;;;;5047138;28;20017;-41
2022/04/11 09:12:52;;;;;;;7.38;5.03;;;9.70;99.30;;;;;;5043248;28;20551;-42
2022/04/11 09:15:19;;;;;;;4.40;4.00;;;9.80;99.30;;;;;;5047500;28;20041;-43
2022/04/11 09:17:46;;;;;;;7.20;4.10;;;9.90;99.30;;;;;;5046193;28;20033;-42
2022/04/11 09:20:21;;;;;;;6.05;3.80;;;9.90;99.00;;;;;;5046729;28;20021;-42
2022/04/11 09:22:47;;;;;;;4.55;4.13;;;10.00;98.80;;;;;;5046092;28;20418;-42
2022/04/11 09:25:18;;;;;;;4.10;3.42;;;10.10;98.70;;;;;;5047627;28;20609;-43
2022/04/11 09:27:44;;;;;;;5.80;4.07;;;10.20;98.70;;;;;;5045697;28;20110;-42
2022/04/11 09:30:28;;;;;;;5.55;3.50;;;10.30;98.60;;;;;;5046920;28;20063;-42
2022/04/11 09:33:01;;;;;;;5.50;3.67;;;10.40;98.80;;;;;;5046181;28;20049;-41
2022/04/11 09:35:29;;;;;;;6.55;4.22;;;10.40;98.40;;;;;;5046373;28;20550;-42
2022/04/11 09:38:06;;;;;;;5.25;3.30;;;10.50;98.30;;;;;;5046079;28;20040;-43
2022/04/11 09:40:36;;;;;;;5.60;3.47;;;10.60;98.20;;;;;;5026382;28;20696;-40
2022/04/11 09:43:01;;;;;;;5.30;3.50;;;10.70;98.10;;;;;;5041217;28;20445;-41
2022/04/11 09:45:27;;;;;;;4.10;3.58;;;10.80;98.10;;;;;;5047029;28;20063;-43
2022/04/11 09:48:03;;;;;;;5.97;3.63;;;10.90;97.60;;;;;;5045022;28;20037;-43
2022/04/11 09:50:30;;;;;;;3.63;3.10;;;11.00;97.40;;;;;;5046657;28;20121;-41
2022/04/11 09:53:16;;;;;;;6.70;3.40;;;11.00;97.30;;;;;;5045764;28;20116;-40
2022/04/11 09:55:46;;;;;;;4.03;2.80;;;11.10;97.00;;;;;;5044744;28;20489;-43
2022/04/11 09:58:13;;;;;;;3.20;2.60;;;11.20;96.80;;;;;;5046012;28;20060;-42
2022/04/11 10:00:40;;;;;;;3.25;2.65;;;11.30;96.90;;;;;;5046335;28;20496;-43
2022/04/11 10:03:06;;;;;;;2.72;2.10;;;11.40;96.90;;;;;;5045341;28;20025;-41
2022/04/11 10:05:37;;;;;;;3.03;2.50;;;11.40;96.80;;;;;;5046400;28;20036;-41
2022/04/11 10:08:05;;;;;;;6.53;2.80;;;11.50;96.40;;;;;;5045968;28;20031;-42
2022/04/11 10:10:34;;;;;;;3.10;2.70;;;11.60;96.20;;;;;;5046159;28;20033;-42
2022/04/11 10:13:05;;;;;;;4.32;2.42;;;11.70;96.10;;;;;;5045564;28;20024;-42
2022/04/11 10:15:31;;;;;;;3.42;2.30;;;11.80;96.00;;;;;;5045349;28;20024;-39
2022/04/11 10:17:57;;;;;;;4.57;2.20;;;11.80;95.70;;;;;;5044916;28;20033;-42
2022/04/11 10:20:31;;;;;;;2.17;1.90;;;11.90;95.50;;;;;;5045956;28;20036;-42
2022/04/11 10:23:21;;;;;;;4.18;2.30;;;11.90;94.10;;;;;;5044435;28;20060;-41
2022/04/11 10:25:48;;;;;;;4.78;2.40;;;12.00;93.90;;;;;;5035433;28;20033;-42
2022/04/11 10:28:25;;;;;;;5.25;2.30;;;12.10;93.90;;;;;;5045564;28;20027;-40
2022/04/11 10:31:05;;;;;;;3.70;1.90;;;12.10;94.00;;;;;;5043728;28;20033;-43
2022/04/11 10:33:47;;;;;;;2.97;2.00;;;12.20;93.90;;;;;;5046098;28;20118;-42
2022/04/11 10:36:30;;;;;;;5.05;2.65;;;12.20;93.40;;;;;;5035859;28;20423;-42
2022/04/11 10:39:14;;;;;;;4.75;3.25;;;12.20;93.20;;;;;;5044391;28;20037;-42
2022/04/11 10:41:58;;;;;;;2.88;2.20;;;12.30;93.10;;;;;;5045786;28;20044;-42
2022/04/11 10:44:42;;;;;;;6.47;2.70;;;12.30;93.00;;;;;;5044474;28;20793;-42
2022/04/11 10:47:15;;;;;;;4.25;2.40;;;12.40;92.80;;;;;;5045156;28;20502;-42
2022/04/11 10:49:55;;;;;;;4.00;2.33;;;12.40;92.80;;;;;;5045326;28;20053;-44
2022/04/11 10:52:33;;;;;;;4.65;2.63;;;12.50;93.00;;;;;;5045191;28;20029;-42
2022/04/11 10:55:10;;;;;;;6.70;3.00;;;12.50;92.90;;;;;;5041070;28;20028;-43
2022/04/11 10:57:47;;;;;;;5.80;3.15;;;12.50;92.30;;;;;;5045171;28;20059;-42
2022/04/11 11:00:20;;;;;;;5.35;3.95;;;12.50;91.80;;;;;;5045375;28;20018;-41
2022/04/11 11:02:59;;;;;;;5.63;3.15;;;12.60;91.30;;;;;;5044874;28;20064;-41
2022/04/11 11:05:27;;;;;;;4.43;3.30;;;12.60;91.30;;;;;;5044519;28;20075;-42
2022/04/11 11:08:17;;;;;;;6.10;3.03;;;12.70;91.60;;;;;;5044899;28;20358;-43
2022/04/11 11:10:44;;;;;;;5.63;2.90;;;12.70;91.80;;;;;;5044400;28;20033;-43
2022/04/11 11:13:34;;;;;;;5.00;2.80;;;12.80;91.60;;;;;;5044152;28;20021;-42
2022/04/11 11:16:01;;;;;;;3.38;2.47;;;12.80;90.30;;;;;;5044380;28;20028;-43
2022/04/11 11:18:47;;;;;;;3.50;2.58;;;12.80;90.00;;;;;;5045123;28;20090;-40
2022/04/11 11:21:13;;;;;;;2.90;2.35;;;12.90;90.30;;;;;;5040193;28;20057;-43
2022/04/11 11:23:39;;;;;;;5.07;2.97;;;13.00;90.30;;;;;;5044847;28;20035;-41
2022/04/11 11:26:12;;;;;;;4.90;2.90;;;13.00;88.60;;;;;;5044092;28;20476;-42
2022/04/11 11:28:42;;;;;;;5.63;3.47;;;13.10;88.80;;;;;;5044709;28;20025;-43
2022/04/11 11:31:09;;;;;;;3.25;2.42;;;13.10;88.50;;;;;;5045074;28;20311;-40
2022/04/11 11:33:36;;;;;;;3.85;2.65;;;13.20;89.30;;;;;;5043552;28;20055;-42
2022/04/11 11:36:02;;;;;;;4.38;3.03;;;13.20;89.90;;;;;;5044569;28;20028;-43
2022/04/11 11:38:30;;;;;;;4.55;3.42;;;13.20;90.20;;;;;;5044664;28;20095;-43
2022/04/11 11:40:58;;;;;;;6.90;3.45;;;13.30;90.30;;;;;;5043798;28;20032;-42
2022/04/11 11:43:29;;;;;;;5.60;2.97;;;13.30;90.50;;;;;;5046517;28;20029;-42
2022/04/11 11:46:02;;;;;;;5.07;3.15;;;13.30;90.70;;;;;;5048316;28;20075;-41
2022/04/11 11:48:30;;;;;;;4.47;3.45;;;13.40;90.90;;;;;;5047881;28;20017;-41
2022/04/11 11:50:58;;;;;;;6.20;4.00;;;13.40;91.00;;;;;;5048550;28;20096;-42
2022/04/11 11:53:25;;;;;;;7.07;4.13;;;13.40;91.00;;;;;;5048793;28;20029;-41
2022/04/11 11:55:59;;;;;;;6.68;3.92;;;13.50;90.80;;;;;;5047199;28;20349;-43
2022/04/11 11:58:38;;;;;;;5.65;3.70;;;13.50;90.60;;;;;;5045772;28;20768;-41
2022/04/11 12:01:05;;;;;;;4.90;4.15;;;13.50;90.50;;;;;;5047843;28;20037;-42
2022/04/11 12:06:26;;;;;;;5.47;3.80;;;13.60;90.20;;;;;;5048759;28;20031;-42
2022/04/11 12:09:01;;;;;;;6.20;3.40;;;13.70;90.30;;;;;;5047297;28;20087;-43
2022/04/11 12:11:28;;;;;;;5.05;3.70;;;13.70;90.10;;;;;;5048506;28;20021;-42
2022/04/11 12:14:08;;;;;;;5.53;4.00;;;13.70;89.50;;;;;;5047416;28;20029;-42
2022/04/11 12:16:36;;;;;;;4.35;3.53;;;13.80;88.30;;;;;;5048051;28;20033;-41
2022/04/11 12:19:03;;;;;;;6.53;3.95;;;13.80;87.40;;;;;;5047532;28;20017;-42
2022/04/11 12:21:30;;;;;;;5.68;3.88;;;13.90;87.50;;;;;;5048425;28;20036;-41
2022/04/11 12:23:56;;;;;;;4.60;3.80;;;14.00;87.80;;;;;;5047266;28;20025;-42
2022/04/11 12:26:36;;;;;;;6.05;4.72;;;14.00;87.40;;;;;;5047832;28;20013;-41
2022/04/11 12:29:16;;;;;;;6.15;4.55;;;14.00;85.70;;;;;;5047067;28;20110;-41
2022/04/11 12:31:58;;;;;;;5.20;4.03;;;14.10;86.00;;;;;;5047780;28;20021;-43
2022/04/11 12:34:38;;;;;;;6.47;3.80;;;14.10;86.40;;;;;;5046686;28;20706;-42
2022/04/11 12:37:05;;;;;;;7.35;4.22;;;14.10;85.60;;;;;;5046463;28;20045;-43
2022/04/11 12:39:32;;;;;;;5.78;4.07;;;14.20;84.80;;;;;;5045670;28;20476;-42
2022/04/11 12:41:58;;;;;;;4.68;3.70;;;14.20;84.80;;;;;;5047548;28;20033;-43
2022/04/11 12:44:34;;;;;;;4.55;3.00;;;14.20;85.20;;;;;;5046776;28;20380;-42
2022/04/11 12:47:00;;;;;;;4.80;3.25;;;14.20;85.90;;;;;;5047708;28;20505;-43
2022/04/11 12:49:42;;;;;;;5.90;3.58;;;14.30;86.00;;;;;;5047009;28;20697;-41
2022/04/11 12:52:08;;;;;;;7.50;3.95;;;14.40;85.30;;;;;;5047187;28;20029;-42
2022/04/11 12:54:41;;;;;;;6.10;4.00;;;14.40;85.00;;;;;;5046752;28;20029;-45
2022/04/11 12:57:08;;;;;;;4.88;3.47;;;14.40;83.90;;;;;;5027675;28;20048;-43
2022/04/11 12:59:37;;;;;;;3.65;3.17;;;14.50;84.20;;;;;;5041569;28;20520;-43